createdAt,value
2023-04-17T06:41:09.811Z,99009.4
2023-04-17T06:46:43.373Z,99011
2023-04-17T06:52:20.024Z,99008.6
2023-04-17T06:58:01.417Z,99009.4
2023-04-17T07:03:45.234Z,99013.9
2023-04-17T07:09:26.437Z,99011.1
2023-04-17T07:15:20.809Z,99009.5
2023-04-17T07:21:46.357Z,99005.6
2023-04-17T07:27:26.862Z,99010.5
2023-04-17T07:33:03.938Z,99009.1
2023-04-17T07:39:02.455Z,99007.2
2023-04-17T07:44:35.683Z,99001.7
2023-04-17T07:50:10.789Z,99002.8
2023-04-17T07:55:46.309Z,99001.8
2023-04-17T08:01:21.860Z,98997.1
2023-04-17T08:06:59.901Z,99004.2
2023-04-17T08:12:36.594Z,99003.4
2023-04-17T08:18:16.457Z,99002.3
2023-04-17T08:23:57.274Z,99001.6
2023-04-17T08:29:42.116Z,98997.8
2023-04-17T08:35:20.169Z,98995.6
2023-04-17T08:41:20.828Z,98999.3
2023-04-17T08:46:53.850Z,98992
2023-04-17T08:52:29.614Z,98996.1
2023-04-17T08:58:29.277Z,98999
2023-04-17T09:04:05.934Z,98995.1
2023-04-17T09:09:46.074Z,98990
2023-04-17T09:15:22.856Z,98994.6
2023-04-17T09:20:58.902Z,98990.2
2023-04-17T09:26:39.746Z,98983.2
2023-04-17T09:32:18.622Z,98979.1
2023-04-17T09:38:16.125Z,98977.2
2023-04-17T09:43:49.087Z,98969.9
2023-04-17T09:49:26.307Z,98963.4
2023-04-17T09:55:07.622Z,98966.1
2023-04-17T10:00:43.352Z,98960.2
2023-04-17T10:06:27.949Z,98954.1
2023-04-17T10:12:11.767Z,98945.6
2023-04-17T10:17:49.417Z,98939.8
2023-04-17T10:23:25.370Z,98935.5
2023-04-17T10:29:05.230Z,98926.2
2023-04-17T10:34:44.382Z,98923.7
2023-04-17T10:40:20.185Z,98928.7
2023-04-17T10:45:57.584Z,98917.9
2023-04-17T10:51:33.922Z,98911.9
2023-04-17T10:57:11.810Z,98913.9
2023-04-17T11:02:51.054Z,98911.3
2023-04-17T11:08:36.900Z,98902.1
2023-04-17T11:14:24.374Z,98893.9
2023-04-17T11:19:59.646Z,98897.4
2023-04-17T11:26:12.935Z,98894
2023-04-17T11:31:51.755Z,98892.8
2023-04-17T11:37:28.288Z,98889.1
2023-04-17T11:43:05.483Z,98888.8
2023-04-17T11:48:43.484Z,98885.5
2023-04-17T11:54:25.638Z,98880.1
2023-04-17T12:00:00.802Z,98870.2
2023-04-17T12:05:36.451Z,98858.6
2023-04-17T12:11:12.858Z,98851.3
2023-04-17T12:16:48.547Z,98846.8
2023-04-17T12:22:24.651Z,98843.7
2023-04-17T12:28:18.813Z,98832.6
2023-04-17T12:34:04.107Z,98821.1
2023-04-17T12:39:43.816Z,98824.8
2023-04-17T12:45:28.256Z,98823.7
2023-04-17T12:51:14.372Z,98810.8
2023-04-17T12:56:49.632Z,98794.2
2023-04-17T13:02:26.388Z,98798.1
2023-04-17T13:08:03.377Z,98801.1
2023-04-17T13:13:41.185Z,98789.9
2023-04-17T13:19:20.351Z,98791.3
2023-04-17T13:24:57.883Z,98782.1
2023-04-17T13:30:34.471Z,98770.9
2023-04-17T13:36:29.608Z,98770.5
2023-04-17T13:42:07.945Z,98761.6
2023-04-17T13:47:50.843Z,98754.3
2023-04-17T13:53:38.811Z,98753.2
2023-04-17T13:59:26.306Z,98752.9
2023-04-17T14:05:11.904Z,98746.9
2023-04-17T14:10:53.976Z,98750.7
2023-04-17T14:16:29.482Z,98749.2
2023-04-17T14:22:15.287Z,98741.5
2023-04-17T14:27:50.844Z,98742.4
2023-04-17T14:33:27.152Z,98742.7
2023-04-17T14:39:02.774Z,98739.8
2023-04-17T14:44:38.017Z,98735.9
2023-04-17T14:50:18.304Z,98735.9
2023-04-17T14:55:56.486Z,98734.2
2023-04-17T15:01:33.508Z,98730.1
2023-04-17T15:07:09.560Z,98723.4
2023-04-17T15:12:49.002Z,98717.7
2023-04-17T15:19:01.461Z,98710.1
2023-04-17T15:24:41.106Z,98701.9
2023-04-17T15:30:19.715Z,98692.1
2023-04-17T15:35:55.207Z,98687.6
2023-04-17T15:41:30.379Z,98684.8
2023-04-17T15:47:05.289Z,98681
2023-04-17T15:52:40.924Z,98677.3
2023-04-17T15:58:19.753Z,98677.2
2023-04-17T16:04:02.739Z,98676.3
2023-04-17T16:09:39.966Z,98675.8
2023-04-17T16:15:15.873Z,98676.4
2023-04-17T16:20:53.649Z,98683.2
2023-04-17T16:26:49.679Z,98676
2023-04-17T16:32:35.268Z,98683.2
2023-04-17T16:39:02.273Z,98686.9
2023-04-17T16:44:35.860Z,98683.7
2023-04-17T16:50:31.772Z,98671.9
2023-04-17T16:56:07.404Z,98668.5
2023-04-17T17:01:52.943Z,98658
2023-04-17T17:07:29.022Z,98659
2023-04-17T17:13:05.494Z,98649.2
2023-04-17T17:18:41.091Z,98647.7
2023-04-17T17:24:16.285Z,98640.8
2023-04-17T17:29:52.140Z,98635.2
2023-04-17T17:35:27.256Z,98636.9
2023-04-17T17:41:14.173Z,98631
2023-04-17T17:46:53.530Z,98632.2
2023-04-17T17:52:40.962Z,98630.3
2023-04-17T17:58:19.611Z,98627
2023-04-17T18:04:03.418Z,98633.6
2023-04-17T18:09:51.792Z,98627.4
2023-04-17T18:15:28.340Z,98628.8
2023-04-17T18:21:04.545Z,98636.8
2023-04-17T18:26:41.439Z,98638.8
2023-04-17T18:32:17.966Z,98637.3
2023-04-17T18:38:15.230Z,98638.8
2023-04-17T18:43:49.403Z,98634.5
2023-04-17T18:49:26.930Z,98638.1
2023-04-17T18:55:02.128Z,98636.5
2023-04-17T19:00:38.022Z,98640
2023-04-17T19:06:14.372Z,98645.1
2023-04-17T19:11:52.646Z,98646.5
2023-04-17T19:17:47.806Z,98650.4
2023-04-17T19:23:45.807Z,98654.9
2023-04-17T19:29:48.786Z,98658
2023-04-17T19:35:44.501Z,98665.9
2023-04-17T19:41:19.842Z,98668.8
2023-04-17T19:46:55.944Z,98673.7
2023-04-17T19:52:51.089Z,98681.8
2023-04-17T19:58:27.756Z,98688.2
2023-04-17T20:04:03.762Z,98697.8
2023-04-17T20:09:40.943Z,98698.4
2023-04-17T20:15:17.200Z,98701.4
2023-04-17T20:20:55.616Z,98707.5
2023-04-17T20:26:30.950Z,98707.9
2023-04-17T20:32:06.948Z,98711
2023-04-17T20:37:43.846Z,98703.9
2023-04-17T20:43:19.462Z,98705.8
2023-04-17T20:49:01.198Z,98708.3
2023-04-17T20:54:40.285Z,98715.7
2023-04-17T21:00:19.823Z,98706.9
2023-04-17T21:06:18.026Z,98711.2
